createdAt,value
2018-12-18T00:00:21.878Z,0.00
2018-12-18T00:01:21.929Z,0.00
2018-12-18T00:02:21.848Z,0.00
2018-12-18T00:03:21.822Z,0.00
2018-12-18T00:04:21.802Z,0.00
2018-12-18T00:05:21.779Z,0.00
2018-12-18T00:06:21.770Z,0.00
2018-12-18T00:07:21.746Z,0.00
2018-12-18T00:08:21.725Z,0.00
2018-12-18T00:09:21.704Z,0.00
2018-12-18T00:10:21.688Z,0.00
2018-12-18T00:11:21.669Z,0.00
2018-12-18T00:12:21.666Z,0.00
2018-12-18T00:13:21.643Z,0.00
2018-12-18T00:14:21.618Z,0.00
2018-12-18T00:15:21.604Z,0.00
2018-12-18T00:16:21.587Z,0.00
2018-12-18T00:17:21.557Z,0.00
2018-12-18T00:18:21.537Z,0.00
2018-12-18T00:19:21.524Z,0.00
2018-12-18T00:20:21.501Z,0.00
2018-12-18T00:21:21.483Z,0.00
2018-12-18T00:22:21.471Z,0.00
2018-12-18T00:23:21.443Z,0.00
2018-12-18T00:24:21.434Z,0.00
2018-12-18T00:25:21.422Z,0.00
2018-12-18T00:26:21.395Z,0.00
2018-12-18T00:27:21.397Z,0.00
2018-12-18T00:28:21.351Z,0.00
2018-12-18T00:29:21.399Z,0.00
2018-12-18T00:30:21.312Z,0.00
2018-12-18T00:31:21.308Z,0.00
2018-12-18T00:32:21.276Z,0.00
2018-12-18T00:33:21.253Z,0.00
2018-12-18T00:34:21.243Z,0.00
2018-12-18T00:35:21.250Z,0.00
2018-12-18T00:36:21.210Z,0.00
2018-12-18T00:37:21.215Z,0.00
2018-12-18T00:38:21.161Z,0.00
2018-12-18T00:39:21.147Z,0.00
2018-12-18T00:40:21.123Z,0.00
2018-12-18T00:41:21.113Z,0.00
2018-12-18T00:42:21.104Z,0.00
2018-12-18T00:43:21.067Z,0.00
2018-12-18T00:44:21.117Z,0.00
2018-12-18T00:45:21.033Z,0.00
2018-12-18T00:46:21.018Z,0.00
2018-12-18T00:47:21.008Z,0.00
2018-12-18T00:48:20.988Z,0.00
2018-12-18T00:49:20.956Z,0.00
2018-12-18T00:50:20.998Z,0.00
2018-12-18T00:51:20.920Z,0.00
2018-12-18T00:52:20.901Z,0.00
2018-12-18T00:53:20.892Z,0.00
2018-12-18T00:54:20.876Z,0.00
2018-12-18T00:55:20.851Z,0.00
2018-12-18T00:56:20.965Z,0.00
2018-12-18T00:57:20.805Z,0.00
2018-12-18T00:58:20.790Z,0.00
2018-12-18T00:59:20.778Z,0.00
2018-12-18T01:00:20.751Z,0.00
2018-12-18T01:01:20.743Z,0.00
2018-12-18T01:02:20.729Z,0.00
2018-12-18T01:03:20.695Z,0.00
2018-12-18T01:04:20.708Z,0.00
2018-12-18T01:05:20.668Z,0.00
2018-12-18T01:06:20.652Z,0.00
2018-12-18T01:07:20.650Z,0.00
2018-12-18T01:08:20.602Z,0.00
2018-12-18T01:09:20.586Z,0.00
2018-12-18T01:10:20.562Z,0.00
2018-12-18T01:11:20.606Z,0.00
2018-12-18T01:12:20.525Z,0.00
2018-12-18T01:13:20.515Z,0.00
2018-12-18T01:14:20.492Z,0.00
2018-12-18T01:15:20.476Z,0.00
2018-12-18T01:16:20.451Z,0.00
2018-12-18T01:17:20.469Z,0.00
2018-12-18T01:18:20.416Z,0.00
2018-12-18T01:19:20.411Z,0.00
2018-12-18T01:20:20.381Z,0.00
2018-12-18T01:21:20.360Z,0.00
2018-12-18T01:22:20.347Z,0.00
2018-12-18T01:23:20.329Z,0.00
2018-12-18T01:24:20.306Z,0.00
2018-12-18T01:25:20.296Z,0.00
2018-12-18T01:26:20.265Z,0.00
2018-12-18T01:27:20.246Z,0.00
2018-12-18T01:28:20.263Z,0.00
2018-12-18T01:29:20.382Z,0.00
2018-12-18T01:30:20.203Z,0.00
2018-12-18T01:31:20.185Z,0.00
2018-12-18T01:32:20.151Z,0.00
2018-12-18T01:33:20.241Z,0.00
2018-12-18T01:34:20.113Z,0.00
2018-12-18T01:35:20.099Z,0.00
2018-12-18T01:36:20.094Z,0.00
2018-12-18T01:37:20.056Z,0.00
2018-12-18T01:38:20.074Z,0.00
2018-12-18T01:39:20.054Z,0.00
2018-12-18T01:40:20.000Z,0.00
2018-12-18T01:41:19.987Z,0.00
2018-12-18T01:42:19.968Z,0.00
2018-12-18T01:43:19.949Z,0.00
2018-12-18T01:44:19.959Z,0.00
2018-12-18T01:45:19.919Z,0.00
2018-12-18T01:46:19.897Z,0.00
2018-12-18T01:47:19.872Z,0.00
2018-12-18T01:48:19.858Z,0.00
2018-12-18T01:49:19.851Z,0.00
2018-12-18T01:50:19.846Z,0.00
2018-12-18T01:51:19.812Z,0.00
2018-12-18T01:52:19.795Z,0.00
2018-12-18T01:53:19.763Z,0.00
2018-12-18T01:54:19.743Z,0.00
2018-12-18T01:55:19.755Z,0.00
2018-12-18T01:56:19.705Z,0.00
2018-12-18T01:57:19.695Z,0.00
2018-12-18T01:58:19.721Z,0.00
2018-12-18T01:59:19.649Z,0.00
2018-12-18T02:00:19.637Z,0.00
2018-12-18T02:01:19.621Z,0.00
2018-12-18T02:02:19.605Z,0.00
2018-12-18T02:03:19.577Z,0.00
2018-12-18T02:04:19.564Z,0.00
2018-12-18T02:05:19.584Z,0.00
2018-12-18T02:06:19.534Z,0.00
2018-12-18T02:07:19.507Z,0.00
2018-12-18T02:08:19.486Z,0.00
2018-12-18T02:09:19.496Z,0.00
2018-12-18T02:10:19.486Z,0.00
2018-12-18T02:11:19.458Z,0.00
2018-12-18T02:12:19.408Z,0.00
2018-12-18T02:13:19.396Z,0.00
2018-12-18T02:14:19.372Z,0.00
2018-12-18T02:15:19.498Z,0.00
2018-12-18T02:16:19.351Z,0.00
2018-12-18T02:17:19.313Z,0.00
2018-12-18T02:18:19.301Z,0.00
2018-12-18T02:19:19.282Z,0.00
2018-12-18T02:20:19.263Z,0.00
2018-12-18T02:21:19.244Z,0.00
2018-12-18T02:22:19.284Z,0.00
2018-12-18T02:23:19.201Z,0.00
2018-12-18T02:24:19.194Z,0.00
2018-12-18T02:25:19.161Z,0.00
2018-12-18T02:26:19.144Z,0.00
2018-12-18T02:27:19.130Z,0.00
2018-12-18T02:28:19.115Z,0.00
2018-12-18T02:29:19.096Z,0.00
2018-12-18T02:30:19.079Z,0.00
2018-12-18T02:31:19.063Z,0.00
2018-12-18T02:32:19.037Z,0.00
2018-12-18T02:33:19.033Z,0.00
2018-12-18T02:34:19.010Z,0.00
2018-12-18T02:35:18.984Z,0.00
2018-12-18T02:36:18.960Z,0.00
2018-12-18T02:37:18.954Z,0.00
2018-12-18T02:38:18.933Z,0.00
2018-12-18T02:39:18.908Z,0.00
2018-12-18T02:40:18.889Z,0.00
2018-12-18T02:41:18.870Z,0.00
2018-12-18T02:42:18.850Z,0.00
2018-12-18T02:43:18.869Z,0.00
2018-12-18T02:44:18.818Z,0.00
2018-12-18T02:45:18.797Z,0.00
2018-12-18T02:46:18.801Z,0.00
2018-12-18T02:47:18.770Z,0.00
2018-12-18T02:48:18.781Z,0.00
2018-12-18T02:49:18.767Z,0.00
2018-12-18T02:50:18.704Z,0.00
2018-12-18T02:51:18.695Z,0.00
2018-12-18T02:52:18.666Z,0.00
2018-12-18T02:53:18.685Z,0.00
2018-12-18T02:54:18.673Z,0.00
2018-12-18T02:55:18.639Z,0.00
2018-12-18T02:56:18.594Z,0.00
2018-12-18T02:57:18.615Z,0.00
2018-12-18T02:58:18.555Z,0.00
2018-12-18T02:59:18.562Z,0.00
2018-12-18T03:00:18.527Z,0.00
2018-12-18T03:01:18.495Z,0.00
2018-12-18T03:02:18.545Z,0.00
2018-12-18T03:03:18.463Z,0.00
2018-12-18T03:04:21.740Z,0.00
2018-12-18T03:05:18.436Z,0.00
2018-12-18T03:06:18.411Z,0.00
2018-12-18T03:07:18.384Z,0.00
2018-12-18T03:08:18.454Z,0.00
2018-12-18T03:09:18.434Z,0.00
2018-12-18T03:10:18.330Z,0.00
2018-12-18T03:11:18.328Z,0.00
2018-12-18T03:12:18.292Z,0.00
2018-12-18T03:13:18.275Z,0.00
2018-12-18T03:14:18.256Z,0.00
2018-12-18T03:15:18.255Z,0.00
2018-12-18T03:16:18.237Z,0.00
2018-12-18T03:17:18.210Z,0.00
2018-12-18T03:18:18.182Z,0.00
2018-12-18T03:19:18.195Z,0.00
2018-12-18T03:20:18.161Z,0.00
2018-12-18T03:21:18.131Z,0.00
2018-12-18T03:22:18.177Z,0.00
2018-12-18T03:23:18.090Z,0.00
2018-12-18T03:24:18.069Z,0.00
2018-12-18T03:25:18.061Z,0.00
2018-12-18T03:26:18.036Z,0.00
2018-12-18T03:27:18.011Z,0.00
2018-12-18T03:28:18.002Z,0.00
2018-12-18T03:29:17.982Z,0.00
2018-12-18T03:30:17.961Z,0.00
2018-12-18T03:31:17.938Z,0.00
2018-12-18T03:32:17.920Z,0.00
2018-12-18T03:33:17.909Z,0.00
2018-12-18T03:34:17.893Z,0.00
2018-12-18T03:35:17.921Z,0.00
2018-12-18T03:36:17.843Z,0.00
2018-12-18T03:37:17.829Z,0.00
2018-12-18T03:38:17.805Z,0.00
2018-12-18T03:39:17.789Z,0.00
2018-12-18T03:40:17.910Z,0.00
2018-12-18T03:41:17.774Z,0.00
2018-12-18T03:42:17.737Z,0.00
2018-12-18T03:43:17.721Z,0.00
2018-12-18T03:44:17.696Z,0.00
2018-12-18T03:45:17.684Z,0.00
2018-12-18T03:46:17.726Z,0.00
2018-12-18T03:47:17.659Z,0.00
2018-12-18T03:48:17.623Z,0.00
2018-12-18T03:49:17.605Z,0.00
2018-12-18T03:50:17.597Z,0.00
2018-12-18T03:51:17.584Z,0.00
2018-12-18T03:52:17.609Z,0.00
2018-12-18T03:53:17.539Z,0.00
2018-12-18T03:54:17.522Z,0.00
2018-12-18T03:55:17.509Z,0.00
2018-12-18T03:56:17.486Z,0.00
2018-12-18T03:57:17.462Z,0.00
2018-12-18T03:58:17.455Z,0.00
2018-12-18T03:59:17.420Z,0.00
2018-12-18T04:00:17.403Z,0.00
2018-12-18T04:01:17.381Z,0.00
2018-12-18T04:02:17.376Z,0.00
2018-12-18T04:03:17.379Z,0.00
2018-12-18T04:04:17.572Z,0.00
2018-12-18T04:05:17.320Z,0.00
2018-12-18T04:06:17.300Z,0.00
2018-12-18T04:07:17.267Z,0.00
2018-12-18T04:08:17.327Z,0.00
2018-12-18T04:09:17.239Z,0.00
2018-12-18T04:10:17.236Z,0.00
2018-12-18T04:11:17.200Z,0.00
2018-12-18T04:12:17.177Z,0.00
2018-12-18T04:13:17.158Z,0.00
2018-12-18T04:14:17.169Z,0.00
2018-12-18T04:15:17.131Z,0.00
2018-12-18T04:16:17.122Z,0.00
2018-12-18T04:17:17.085Z,0.00
2018-12-18T04:18:17.067Z,0.00
2018-12-18T04:19:17.060Z,0.00
2018-12-18T04:20:17.040Z,0.00
2018-12-18T04:21:17.012Z,0.00
2018-12-18T04:22:16.999Z,0.00
2018-12-18T04:23:17.012Z,0.00
2018-12-18T04:24:16.979Z,0.00
2018-12-18T04:25:16.974Z,0.00
2018-12-18T04:26:16.927Z,0.00
2018-12-18T04:27:16.906Z,0.00
2018-12-18T04:28:16.905Z,0.00
2018-12-18T04:29:16.880Z,0.00
2018-12-18T04:30:16.889Z,0.00
2018-12-18T04:31:16.880Z,0.00
2018-12-18T04:32:16.816Z,0.00
2018-12-18T04:33:16.808Z,0.00
2018-12-18T04:34:16.782Z,0.00
2018-12-18T04:35:16.761Z,0.00
2018-12-18T04:36:16.767Z,0.00
2018-12-18T04:37:16.729Z,0.00
2018-12-18T04:38:16.737Z,0.00
2018-12-18T04:39:16.685Z,0.00
2018-12-18T04:40:16.663Z,0.00
2018-12-18T04:41:16.675Z,0.00
2018-12-18T04:42:16.644Z,0.00
2018-12-18T04:43:16.650Z,0.00
2018-12-18T04:44:16.591Z,0.00
2018-12-18T04:45:16.596Z,0.00
2018-12-18T04:46:16.568Z,0.00
2018-12-18T04:47:16.537Z,0.00
2018-12-18T04:48:16.548Z,0.00
2018-12-18T04:49:16.499Z,0.00
2018-12-18T04:50:16.486Z,0.00
2018-12-18T04:51:16.464Z,0.00
2018-12-18T04:52:16.457Z,0.00
2018-12-18T04:53:16.426Z,0.00
2018-12-18T04:54:16.412Z,0.00
2018-12-18T04:55:16.395Z,0.00
2018-12-18T04:56:16.506Z,0.00
2018-12-18T04:57:16.352Z,0.00
2018-12-18T04:58:16.349Z,0.00
2018-12-18T04:59:16.317Z,0.00
2018-12-18T05:00:16.318Z,0.00
2018-12-18T05:01:16.279Z,0.00
2018-12-18T05:02:16.266Z,0.00
2018-12-18T05:03:16.276Z,0.00
2018-12-18T05:04:16.230Z,0.00
2018-12-18T05:05:16.215Z,0.00
2018-12-18T05:06:16.194Z,0.00
2018-12-18T05:07:16.191Z,0.00
2018-12-18T05:08:16.154Z,0.00
2018-12-18T05:09:16.147Z,0.00
2018-12-18T05:10:16.119Z,0.00
2018-12-18T05:11:16.099Z,0.00
2018-12-18T05:12:16.105Z,0.00
2018-12-18T05:13:16.062Z,0.00
2018-12-18T05:14:16.046Z,0.00
2018-12-18T05:15:16.036Z,0.00
2018-12-18T05:16:16.006Z,0.00
2018-12-18T05:17:16.016Z,0.00
2018-12-18T05:18:15.993Z,0.00
2018-12-18T05:19:15.967Z,0.00
2018-12-18T05:20:15.943Z,0.00
2018-12-18T05:21:15.916Z,0.00
2018-12-18T05:22:15.898Z,0.00
2018-12-18T05:23:15.884Z,0.00
2018-12-18T05:24:15.862Z,0.00
2018-12-18T05:25:15.910Z,0.00
2018-12-18T05:26:15.826Z,0.00
2018-12-18T05:27:15.826Z,0.00
2018-12-18T05:28:16.366Z,0.00
2018-12-18T05:29:15.768Z,0.00
2018-12-18T05:30:15.754Z,0.00
2018-12-18T05:31:15.889Z,0.00
2018-12-18T05:32:15.708Z,0.00
2018-12-18T05:33:15.697Z,0.00
2018-12-18T05:34:15.676Z,0.00
2018-12-18T05:35:15.658Z,0.00
2018-12-18T05:36:15.650Z,0.00
2018-12-18T05:37:15.634Z,0.00
2018-12-18T05:38:15.600Z,0.00
2018-12-18T05:39:15.590Z,0.00
2018-12-18T05:40:15.600Z,0.00
2018-12-18T05:41:15.580Z,0.00
2018-12-18T05:42:15.534Z,0.00
2018-12-18T05:43:15.518Z,0.00
2018-12-18T05:44:15.499Z,0.00
2018-12-18T05:45:15.471Z,0.00
2018-12-18T05:46:15.452Z,0.00
2018-12-18T05:47:15.452Z,0.00
2018-12-18T05:48:15.420Z,0.00
2018-12-18T05:49:15.415Z,0.00
2018-12-18T05:50:15.529Z,0.00
2018-12-18T05:51:15.360Z,0.00
2018-12-18T05:52:15.348Z,0.00
2018-12-18T05:53:15.325Z,0.00
2018-12-18T05:54:15.310Z,0.00
2018-12-18T05:55:15.318Z,0.00
2018-12-18T05:56:15.271Z,0.00
2018-12-18T05:57:15.280Z,0.00
2018-12-18T05:58:15.233Z,0.00
2018-12-18T05:59:15.228Z,0.00
2018-12-18T06:00:15.205Z,0.00
2018-12-18T06:01:15.176Z,0.00
2018-12-18T06:02:15.166Z,0.00
2018-12-18T06:03:15.158Z,0.00
2018-12-18T06:04:15.125Z,0.00
2018-12-18T06:05:15.116Z,0.00
2018-12-18T06:06:15.089Z,0.00
2018-12-18T06:07:15.214Z,0.00
2018-12-18T06:08:15.052Z,0.00
2018-12-18T06:09:15.044Z,0.00
2018-12-18T06:10:15.018Z,0.00
2018-12-18T06:11:15.006Z,0.00
2018-12-18T06:12:14.981Z,0.00
2018-12-18T06:13:14.984Z,0.00
2018-12-18T06:14:14.951Z,0.00
2018-12-18T06:15:14.941Z,0.00
2018-12-18T06:16:14.900Z,0.00
2018-12-18T06:17:14.895Z,0.00
2018-12-18T06:18:14.897Z,0.00
2018-12-18T06:19:14.843Z,0.00
2018-12-18T06:20:14.835Z,0.00
2018-12-18T06:21:14.809Z,0.00
2018-12-18T06:22:14.793Z,0.00
2018-12-18T06:23:14.833Z,0.00
2018-12-18T06:24:14.750Z,0.00
2018-12-18T06:25:16.443Z,0.00
2018-12-18T06:26:14.777Z,0.00
2018-12-18T06:27:14.699Z,0.00
2018-12-18T06:28:14.684Z,0.00
2018-12-18T06:29:14.667Z,0.00
2018-12-18T06:30:14.646Z,0.00
2018-12-18T06:31:14.634Z,0.00
2018-12-18T06:32:14.636Z,0.00
2018-12-18T06:33:14.598Z,0.00
2018-12-18T06:34:14.583Z,0.00
2018-12-18T06:35:14.575Z,0.00
2018-12-18T06:36:14.542Z,0.00
2018-12-18T06:37:14.514Z,0.00
2018-12-18T06:38:14.505Z,0.00
2018-12-18T06:39:14.476Z,0.00
2018-12-18T06:40:14.458Z,0.00
2018-12-18T06:41:14.467Z,0.00
2018-12-18T06:42:14.460Z,0.00
2018-12-18T06:43:14.411Z,0.00
2018-12-18T06:44:14.384Z,0.00
2018-12-18T06:45:14.374Z,0.00
2018-12-18T06:46:14.349Z,0.00
2018-12-18T06:47:14.377Z,0.00
2018-12-18T06:48:14.310Z,0.00
2018-12-18T06:49:14.305Z,0.00
2018-12-18T06:50:14.273Z,0.00
2018-12-18T06:51:14.255Z,0.00
2018-12-18T06:52:14.274Z,0.00
2018-12-18T06:53:14.233Z,0.00
2018-12-18T06:54:14.199Z,0.00
2018-12-18T06:55:14.192Z,0.00
2018-12-18T06:56:14.159Z,0.00
2018-12-18T06:57:14.277Z,0.00
2018-12-18T06:58:14.122Z,0.00
2018-12-18T06:59:14.111Z,0.00
2018-12-18T07:00:14.104Z,0.00
2018-12-18T07:01:14.078Z,0.00
2018-12-18T07:02:14.048Z,0.00
2018-12-18T07:03:14.062Z,0.00
2018-12-18T07:04:14.031Z,0.00
2018-12-18T07:05:16.955Z,0.00
2018-12-18T07:06:13.978Z,0.00
2018-12-18T07:07:13.989Z,0.00
2018-12-18T07:08:13.972Z,0.00
2018-12-18T07:09:13.938Z,0.00
2018-12-18T07:10:13.900Z,0.00
2018-12-18T07:11:13.907Z,0.00
2018-12-18T07:12:13.877Z,0.00
2018-12-18T07:13:13.875Z,0.00
2018-12-18T07:14:13.829Z,0.00
2018-12-18T07:15:13.842Z,0.00
2018-12-18T07:16:13.792Z,0.00
2018-12-18T07:17:13.774Z,0.00
2018-12-18T07:18:13.756Z,0.00
2018-12-18T07:19:13.743Z,0.00
2018-12-18T07:20:13.758Z,0.00
2018-12-18T07:21:13.701Z,0.00
2018-12-18T07:22:13.692Z,0.00
2018-12-18T07:23:13.659Z,0.00
2018-12-18T07:24:14.159Z,0.00
2018-12-18T07:25:13.773Z,0.00
2018-12-18T07:26:13.603Z,0.00
2018-12-18T07:27:13.589Z,0.00
2018-12-18T07:28:13.566Z,0.00
2018-12-18T07:29:13.551Z,0.00
2018-12-18T07:30:13.550Z,0.00
2018-12-18T07:31:13.523Z,0.00
2018-12-18T07:32:13.495Z,0.00
2018-12-18T07:33:13.476Z,0.00
2018-12-18T07:34:13.453Z,0.00
2018-12-18T07:35:13.440Z,0.00
2018-12-18T07:36:13.422Z,0.00
2018-12-18T07:37:13.402Z,0.00
2018-12-18T07:38:13.383Z,0.00
2018-12-18T07:39:13.363Z,0.00
2018-12-18T07:40:13.342Z,0.00
2018-12-18T07:41:13.331Z,0.00
2018-12-18T07:42:13.303Z,0.00
2018-12-18T07:43:13.288Z,0.00
2018-12-18T07:44:13.277Z,0.00
2018-12-18T07:45:13.261Z,0.00
2018-12-18T07:46:13.240Z,0.00
2018-12-18T07:47:13.215Z,5.63
2018-12-18T07:48:13.192Z,5.63
2018-12-18T07:49:13.176Z,5.63
2018-12-18T07:50:13.157Z,5.63
2018-12-18T07:51:13.161Z,5.63
2018-12-18T07:52:13.148Z,5.63
2018-12-18T07:53:13.101Z,5.63
2018-12-18T07:54:13.101Z,5.63
2018-12-18T07:55:13.068Z,5.63
2018-12-18T07:56:13.048Z,5.63
2018-12-18T07:57:13.020Z,5.63
2018-12-18T07:58:13.016Z,5.63
2018-12-18T07:59:12.995Z,5.63
2018-12-18T08:00:12.979Z,5.63
2018-12-18T08:01:12.990Z,5.63
2018-12-18T08:02:12.943Z,11.25
2018-12-18T08:03:12.916Z,11.25
2018-12-18T08:04:12.891Z,11.25
2018-12-18T08:05:12.881Z,11.25
2018-12-18T08:06:12.992Z,11.25
2018-12-18T08:07:12.840Z,11.25
2018-12-18T08:08:12.817Z,16.88
2018-12-18T08:09:12.803Z,16.88
2018-12-18T08:10:12.793Z,16.88
2018-12-18T08:11:12.773Z,16.88
2018-12-18T08:12:12.785Z,16.88
2018-12-18T08:13:12.723Z,22.50
2018-12-18T08:14:12.707Z,22.50
2018-12-18T08:15:12.693Z,22.50
2018-12-18T08:16:12.681Z,22.50
2018-12-18T08:17:12.681Z,22.50
2018-12-18T08:18:12.737Z,22.50
2018-12-18T08:19:12.706Z,22.50
2018-12-18T08:20:12.704Z,22.50
2018-12-18T08:21:12.635Z,22.50
2018-12-18T08:22:12.619Z,22.50
2018-12-18T08:23:12.536Z,22.50
2018-12-18T08:24:12.523Z,22.50
2018-12-18T08:25:12.519Z,28.13
2018-12-18T08:26:12.512Z,28.13
2018-12-18T08:27:12.468Z,28.13
2018-12-18T08:28:12.451Z,28.13
2018-12-18T08:29:12.428Z,28.13
2018-12-18T08:30:12.421Z,28.13
2018-12-18T08:31:12.388Z,33.75
2018-12-18T08:32:12.375Z,33.75
2018-12-18T08:33:12.363Z,33.75
2018-12-18T08:34:12.376Z,28.13
2018-12-18T08:35:12.322Z,28.13
2018-12-18T08:36:12.301Z,33.75
2018-12-18T08:37:12.290Z,33.75
2018-12-18T08:38:12.278Z,39.38
2018-12-18T08:39:12.396Z,39.38
2018-12-18T08:40:12.228Z,45.00
2018-12-18T08:41:12.220Z,45.00
2018-12-18T08:42:12.196Z,45.00
2018-12-18T08:43:12.181Z,50.63
2018-12-18T08:44:12.157Z,50.63
2018-12-18T08:45:12.141Z,50.63
2018-12-18T08:46:12.131Z,50.63
2018-12-18T08:47:12.173Z,50.63
2018-12-18T08:48:12.099Z,45.00
2018-12-18T08:49:12.127Z,45.00
2018-12-18T08:50:12.046Z,45.00
2018-12-18T08:51:12.040Z,45.00
2018-12-18T08:52:12.009Z,45.00
2018-12-18T08:53:12.000Z,45.00
2018-12-18T08:54:11.974Z,45.00
2018-12-18T08:55:11.981Z,45.00
2018-12-18T08:56:11.939Z,45.00
2018-12-18T08:57:11.918Z,45.00
2018-12-18T08:58:11.905Z,50.63
2018-12-18T08:59:11.881Z,50.63
2018-12-18T09:00:11.869Z,56.25
2018-12-18T09:01:11.855Z,56.25
2018-12-18T09:02:11.824Z,56.25
2018-12-18T09:03:11.815Z,56.25
2018-12-18T09:04:11.790Z,56.25
2018-12-18T09:05:11.815Z,56.25
2018-12-18T09:06:11.766Z,56.25
2018-12-18T09:07:11.736Z,56.25
2018-12-18T09:08:11.766Z,61.88
2018-12-18T09:09:11.711Z,67.50
2018-12-18T09:10:11.702Z,67.50
2018-12-18T09:11:11.671Z,73.13
2018-12-18T09:12:11.649Z,78.75
2018-12-18T09:13:11.674Z,78.75
2018-12-18T09:14:11.622Z,78.75
2018-12-18T09:15:11.602Z,78.75
2018-12-18T09:16:11.570Z,84.38
2018-12-18T09:17:11.558Z,84.38
2018-12-18T09:18:11.575Z,78.75
2018-12-18T09:19:11.550Z,73.13
2018-12-18T09:20:11.510Z,73.13
2018-12-18T09:21:11.494Z,73.13
2018-12-18T09:22:11.480Z,84.38
2018-12-18T09:23:11.451Z,84.38
2018-12-18T09:24:11.476Z,78.75
2018-12-18T09:25:11.425Z,73.13
2018-12-18T09:26:11.393Z,73.13
2018-12-18T09:27:11.377Z,78.75
2018-12-18T09:28:11.361Z,84.38
2018-12-18T09:29:11.339Z,90.00
2018-12-18T09:30:11.336Z,90.00
2018-12-18T09:31:11.306Z,90.00
2018-12-18T09:32:11.287Z,101.25
2018-12-18T09:33:11.270Z,106.88
2018-12-18T09:34:11.326Z,118.13
2018-12-18T09:35:11.269Z,118.13
2018-12-18T09:36:11.220Z,118.13
2018-12-18T09:37:11.194Z,118.13
2018-12-18T09:38:11.182Z,129.38
2018-12-18T09:39:11.158Z,135.00
2018-12-18T09:40:11.158Z,135.00
2018-12-18T09:41:11.167Z,140.63
2018-12-18T09:42:11.103Z,146.25
2018-12-18T09:43:11.085Z,146.25
2018-12-18T09:44:11.071Z,135.00
2018-12-18T09:45:11.052Z,129.38
2018-12-18T09:46:11.069Z,135.00
2018-12-18T09:47:11.030Z,129.38
2018-12-18T09:48:11.015Z,123.75
2018-12-18T09:49:10.983Z,112.50
2018-12-18T09:50:10.963Z,112.50
2018-12-18T09:51:10.977Z,118.13
2018-12-18T09:52:10.991Z,123.75
2018-12-18T09:53:10.911Z,129.38
2018-12-18T09:54:10.893Z,123.75
2018-12-18T09:55:10.875Z,135.00
2018-12-18T09:56:10.855Z,135.00
2018-12-18T09:57:10.843Z,140.63
2018-12-18T09:58:10.824Z,151.88
2018-12-18T09:59:10.823Z,151.88
2018-12-18T10:00:10.791Z,151.88
2018-12-18T10:01:10.789Z,146.25
2018-12-18T10:02:11.461Z,157.50
2018-12-18T10:03:10.734Z,168.75
2018-12-18T10:04:10.711Z,163.13
2018-12-18T10:05:10.713Z,157.50
2018-12-18T10:06:10.679Z,157.50
2018-12-18T10:07:10.664Z,157.50
2018-12-18T10:08:10.679Z,140.63
2018-12-18T10:09:10.624Z,129.38
2018-12-18T10:10:10.620Z,135.00
2018-12-18T10:11:10.596Z,140.63
2018-12-18T10:12:10.593Z,146.25
2018-12-18T10:13:10.611Z,151.88
2018-12-18T10:14:10.540Z,163.13
2018-12-18T10:15:10.541Z,163.13
2018-12-18T10:16:10.502Z,157.50
2018-12-18T10:17:10.491Z,157.50
2018-12-18T10:18:10.472Z,163.13
2018-12-18T10:19:10.481Z,163.13
2018-12-18T10:20:10.450Z,174.38
2018-12-18T10:21:10.418Z,180.00
2018-12-18T10:22:10.404Z,180.00
2018-12-18T10:23:10.385Z,174.38
2018-12-18T10:24:10.411Z,185.63
2018-12-18T10:25:10.363Z,191.25
2018-12-18T10:26:10.331Z,185.63
2018-12-18T10:27:10.325Z,168.75
2018-12-18T10:28:10.300Z,180.00
2018-12-18T10:29:10.289Z,168.75
2018-12-18T10:30:10.919Z,151.88
2018-12-18T10:31:10.247Z,157.50
2018-12-18T10:32:10.269Z,196.88
2018-12-18T10:33:10.209Z,219.38
2018-12-18T10:34:10.203Z,213.75
2018-12-18T10:35:10.206Z,213.75
2018-12-18T10:36:10.169Z,208.13
2018-12-18T10:37:10.138Z,219.38
2018-12-18T10:38:10.153Z,225.00
2018-12-18T10:39:10.135Z,219.38
2018-12-18T10:40:10.088Z,219.38
2018-12-18T10:41:10.125Z,213.75
2018-12-18T10:42:10.054Z,213.75
2018-12-18T10:43:10.032Z,219.38
2018-12-18T10:44:10.029Z,213.75
2018-12-18T10:45:13.745Z,208.13
2018-12-18T10:46:09.983Z,213.75
2018-12-18T10:47:09.977Z,213.75
2018-12-18T10:48:09.960Z,213.75
2018-12-18T10:49:09.965Z,208.13
2018-12-18T10:50:09.925Z,196.88
2018-12-18T10:51:09.898Z,191.25
2018-12-18T10:52:09.883Z,191.25
2018-12-18T10:53:09.929Z,191.25
2018-12-18T10:54:09.894Z,202.50
2018-12-18T10:55:09.844Z,202.50
2018-12-18T10:56:09.837Z,213.75
2018-12-18T10:57:09.800Z,213.75
2018-12-18T10:58:09.780Z,208.13
2018-12-18T10:59:09.803Z,191.25
2018-12-18T11:00:09.747Z,174.38
2018-12-18T11:01:09.730Z,163.13
2018-12-18T11:02:09.713Z,163.13
2018-12-18T11:03:09.692Z,157.50
2018-12-18T11:04:09.708Z,151.88
2018-12-18T11:05:09.812Z,151.88
2018-12-18T11:06:10.282Z,146.25
2018-12-18T11:07:09.645Z,140.63
2018-12-18T11:08:09.608Z,140.63
2018-12-18T11:09:09.601Z,140.63
2018-12-18T11:10:09.574Z,135.00
2018-12-18T11:11:09.692Z,129.38
2018-12-18T11:12:09.544Z,123.75
2018-12-18T11:13:09.522Z,129.38
2018-12-18T11:14:09.503Z,123.75
2018-12-18T11:15:09.491Z,123.75
2018-12-18T11:16:09.485Z,123.75
2018-12-18T11:17:09.464Z,140.63
2018-12-18T11:18:09.438Z,140.63
2018-12-18T11:19:09.420Z,135.00
2018-12-18T11:20:09.406Z,123.75
2018-12-18T11:21:09.551Z,123.75
2018-12-18T11:22:09.380Z,123.75
2018-12-18T11:23:09.367Z,123.75
2018-12-18T11:24:09.336Z,123.75
2018-12-18T11:25:09.328Z,135.00
2018-12-18T11:26:09.299Z,157.50
2018-12-18T11:27:09.320Z,174.38
2018-12-18T11:28:13.016Z,202.50
2018-12-18T11:29:09.947Z,213.75
2018-12-18T11:30:09.238Z,230.63
2018-12-18T11:31:09.207Z,236.25
2018-12-18T11:32:09.577Z,230.63
2018-12-18T11:33:09.180Z,230.63
2018-12-18T11:34:09.170Z,219.38
2018-12-18T11:35:09.145Z,213.75
2018-12-18T11:36:09.122Z,208.13
2018-12-18T11:37:09.129Z,191.25
2018-12-18T11:38:09.101Z,185.63
2018-12-18T11:39:09.088Z,191.25
2018-12-18T11:40:09.057Z,185.63
2018-12-18T11:41:09.041Z,163.13
2018-12-18T11:42:09.061Z,157.50
2018-12-18T11:43:09.017Z,174.38
2018-12-18T11:44:08.988Z,174.38
2018-12-18T11:45:08.973Z,168.75
2018-12-18T11:46:08.951Z,168.75
2018-12-18T11:47:08.999Z,163.13
2018-12-18T11:48:08.921Z,185.63
2018-12-18T11:49:08.908Z,191.25
2018-12-18T11:50:08.887Z,208.13
2018-12-18T11:51:08.873Z,202.50
2018-12-18T11:52:08.858Z,185.63
2018-12-18T11:53:08.866Z,168.75
2018-12-18T11:54:08.823Z,168.75
2018-12-18T11:55:08.812Z,163.13
2018-12-18T11:56:08.798Z,146.25
2018-12-18T11:57:08.768Z,151.88
2018-12-18T11:58:08.781Z,157.50
2018-12-18T11:59:08.746Z,168.75
2018-12-18T12:00:08.714Z,180.00
2018-12-18T12:01:08.712Z,174.38
2018-12-18T12:02:08.694Z,168.75
2018-12-18T12:03:08.713Z,157.50
2018-12-18T12:04:09.542Z,163.13
2018-12-18T12:05:08.636Z,163.13
2018-12-18T12:06:08.613Z,151.88
2018-12-18T12:07:08.593Z,151.88
2018-12-18T12:08:08.606Z,146.25
2018-12-18T12:09:08.571Z,140.63
2018-12-18T12:10:08.547Z,135.00
2018-12-18T12:11:08.532Z,135.00
2018-12-18T12:12:08.509Z,135.00
2018-12-18T12:13:08.539Z,129.38
2018-12-18T12:14:08.527Z,129.38
2018-12-18T12:15:08.464Z,135.00
2018-12-18T12:16:08.443Z,135.00
2018-12-18T12:17:08.432Z,140.63
2018-12-18T12:18:08.449Z,140.63
2018-12-18T12:19:08.535Z,140.63
2018-12-18T12:20:08.378Z,146.25
2018-12-18T12:21:08.364Z,146.25
2018-12-18T12:22:08.366Z,157.50
2018-12-18T12:23:08.325Z,163.13
2018-12-18T12:24:08.319Z,174.38
2018-12-18T12:25:08.363Z,191.25
2018-12-18T12:26:08.269Z,208.13
2018-12-18T12:27:08.258Z,219.38
2018-12-18T12:28:08.236Z,213.75
2018-12-18T12:29:08.348Z,213.75
2018-12-18T12:30:08.219Z,225.00
2018-12-18T12:31:08.190Z,219.38
2018-12-18T12:32:08.179Z,208.13
2018-12-18T12:33:08.154Z,202.50
2018-12-18T12:34:08.174Z,208.13
2018-12-18T12:35:08.118Z,208.13
2018-12-18T12:36:08.101Z,208.13
2018-12-18T12:37:08.092Z,202.50
2018-12-18T12:38:08.069Z,196.88
2018-12-18T12:39:08.078Z,196.88
2018-12-18T12:40:08.044Z,196.88
2018-12-18T12:41:08.027Z,196.88
2018-12-18T12:42:08.006Z,191.25
2018-12-18T12:43:07.985Z,191.25
2018-12-18T12:44:08.100Z,191.25
2018-12-18T12:45:07.961Z,185.63
2018-12-18T12:46:07.934Z,180.00
2018-12-18T12:47:07.943Z,180.00
2018-12-18T12:48:08.078Z,174.38
2018-12-18T12:49:07.882Z,174.38
2018-12-18T12:50:07.878Z,174.38
2018-12-18T12:51:07.921Z,174.38
2018-12-18T12:52:07.879Z,174.38
2018-12-18T12:53:07.827Z,174.38
2018-12-18T12:54:07.794Z,168.75
2018-12-18T12:55:07.822Z,168.75
2018-12-18T12:56:07.792Z,168.75
2018-12-18T12:57:07.754Z,168.75
2018-12-18T12:58:07.730Z,168.75
2018-12-18T12:59:07.722Z,168.75
2018-12-18T13:00:07.706Z,168.75
2018-12-18T13:01:07.719Z,163.13